sensor_id;sensor_type;location;lat;lon;timestamp;temperature;humidity
52791;DHT22;41253;46.856;-71.574;2022-08-02T00:01:41;24.00;99.90
52791;DHT22;41253;46.856;-71.574;2022-08-02T00:04:08;23.90;99.90
52791;DHT22;41253;46.856;-71.574;2022-08-02T00:06:35;23.80;99.90
52791;DHT22;41253;46.856;-71.574;2022-08-02T00:09:02;23.70;99.90
52791;DHT22;41253;46.856;-71.574;2022-08-02T00:11:29;23.60;99.90
52791;DHT22;41253;46.856;-71.574;2022-08-02T00:13:56;23.50;99.90
52791;DHT22;41253;46.856;-71.574;2022-08-02T00:16:23;23.40;99.90
52791;DHT22;41253;46.856;-71.574;2022-08-02T00:18:49;23.30;99.90
52791;DHT22;41253;46.856;-71.574;2022-08-02T00:21:16;23.20;99.90
52791;DHT22;41253;46.856;-71.574;2022-08-02T00:23:42;23.10;99.90
52791;DHT22;41253;46.856;-71.574;2022-08-02T00:26:09;23.00;99.90
52791;DHT22;41253;46.856;-71.574;2022-08-02T00:28:35;22.90;99.90
52791;DHT22;41253;46.856;-71.574;2022-08-02T00:31:02;22.80;99.90
52791;DHT22;41253;46.856;-71.574;2022-08-02T00:33:28;22.60;99.90
52791;DHT22;41253;46.856;-71.574;2022-08-02T00:35:55;22.50;99.90
52791;DHT22;41253;46.856;-71.574;2022-08-02T00:38:21;22.40;99.90
52791;DHT22;41253;46.856;-71.574;2022-08-02T00:40:49;22.20;99.90
52791;DHT22;41253;46.856;-71.574;2022-08-02T00:43:16;22.10;99.90
52791;DHT22;41253;46.856;-71.574;2022-08-02T00:45:43;22.00;99.90
52791;DHT22;41253;46.856;-71.574;2022-08-02T00:48:11;21.90;99.90
52791;DHT22;41253;46.856;-71.574;2022-08-02T00:50:39;21.90;99.90
52791;DHT22;41253;46.856;-71.574;2022-08-02T00:53:06;21.80;99.90
52791;DHT22;41253;46.856;-71.574;2022-08-02T00:55:34;21.70;99.90
52791;DHT22;41253;46.856;-71.574;2022-08-02T00:58:02;21.60;99.90
52791;DHT22;41253;46.856;-71.574;2022-08-02T01:00:28;21.50;99.90
52791;DHT22;41253;46.856;-71.574;2022-08-02T01:02:55;21.40;99.90
52791;DHT22;41253;46.856;-71.574;2022-08-02T01:05:21;21.30;99.90
52791;DHT22;41253;46.856;-71.574;2022-08-02T01:07:48;21.30;99.90
52791;DHT22;41253;46.856;-71.574;2022-08-02T01:10:14;21.20;99.90
52791;DHT22;41253;46.856;-71.574;2022-08-02T01:12:41;21.20;99.90
52791;DHT22;41253;46.856;-71.574;2022-08-02T01:15:09;21.10;99.90
52791;DHT22;41253;46.856;-71.574;2022-08-02T01:18:08;20.90;99.90
52791;DHT22;41253;46.856;-71.574;2022-08-02T01:24:03;20.60;99.90
52791;DHT22;41253;46.856;-71.574;2022-08-02T01:29:42;20.10;99.90
52791;DHT22;41253;46.856;-71.574;2022-08-02T01:32:15;20.00;99.90
52791;DHT22;41253;46.856;-71.574;2022-08-02T01:34:50;19.90;99.90
52791;DHT22;41253;46.856;-71.574;2022-08-02T01:37:21;19.90;99.90
52791;DHT22;41253;46.856;-71.574;2022-08-02T01:40:04;19.90;99.90
52791;DHT22;41253;46.856;-71.574;2022-08-02T01:42:32;20.00;99.90
52791;DHT22;41253;46.856;-71.574;2022-08-02T01:45:00;20.10;99.90
52791;DHT22;41253;46.856;-71.574;2022-08-02T01:47:30;20.10;99.90
52791;DHT22;41253;46.856;-71.574;2022-08-02T01:49:59;20.10;99.90
52791;DHT22;41253;46.856;-71.574;2022-08-02T01:52:31;20.00;99.90
52791;DHT22;41253;46.856;-71.574;2022-08-02T01:55:16;20.10;99.90
52791;DHT22;41253;46.856;-71.574;2022-08-02T01:57:56;20.10;99.90
52791;DHT22;41253;46.856;-71.574;2022-08-02T02:00:25;20.10;99.90
52791;DHT22;41253;46.856;-71.574;2022-08-02T02:02:56;20.00;99.90
52791;DHT22;41253;46.856;-71.574;2022-08-02T02:05:24;20.00;99.90
52791;DHT22;41253;46.856;-71.574;2022-08-02T02:07:58;20.00;99.90
52791;DHT22;41253;46.856;-71.574;2022-08-02T02:10:32;19.90;99.90
52791;DHT22;41253;46.856;-71.574;2022-08-02T02:13:02;20.00;99.90
52791;DHT22;41253;46.856;-71.574;2022-08-02T02:15:30;20.00;99.90
52791;DHT22;41253;46.856;-71.574;2022-08-02T02:17:57;20.00;99.90
52791;DHT22;41253;46.856;-71.574;2022-08-02T02:20:24;19.90;99.90
52791;DHT22;41253;46.856;-71.574;2022-08-02T02:22:51;19.90;99.90
52791;DHT22;41253;46.856;-71.574;2022-08-02T02:25:20;19.80;99.90
52791;DHT22;41253;46.856;-71.574;2022-08-02T02:27:57;19.80;99.90
52791;DHT22;41253;46.856;-71.574;2022-08-02T02:30:27;19.80;99.90
52791;DHT22;41253;46.856;-71.574;2022-08-02T02:32:57;19.80;99.90
52791;DHT22;41253;46.856;-71.574;2022-08-02T02:35:29;19.80;99.90
52791;DHT22;41253;46.856;-71.574;2022-08-02T02:38:01;19.70;99.90
52791;DHT22;41253;46.856;-71.574;2022-08-02T02:40:29;19.70;99.90
52791;DHT22;41253;46.856;-71.574;2022-08-02T02:42:58;19.80;99.90
52791;DHT22;41253;46.856;-71.574;2022-08-02T02:45:26;19.70;99.90
52791;DHT22;41253;46.856;-71.574;2022-08-02T02:47:54;19.80;99.90
52791;DHT22;41253;46.856;-71.574;2022-08-02T02:50:22;19.80;99.90
52791;DHT22;41253;46.856;-71.574;2022-08-02T02:52:50;19.80;99.90
52791;DHT22;41253;46.856;-71.574;2022-08-02T02:55:17;19.80;99.90
52791;DHT22;41253;46.856;-71.574;2022-08-02T02:57:44;19.80;99.90
52791;DHT22;41253;46.856;-71.574;2022-08-02T03:00:13;19.80;99.90
52791;DHT22;41253;46.856;-71.574;2022-08-02T03:02:42;19.70;99.90
52791;DHT22;41253;46.856;-71.574;2022-08-02T03:05:11;19.80;99.90
52791;DHT22;41253;46.856;-71.574;2022-08-02T03:07:38;19.80;99.90
52791;DHT22;41253;46.856;-71.574;2022-08-02T03:10:06;19.80;99.90
52791;DHT22;41253;46.856;-71.574;2022-08-02T03:12:33;19.70;99.90
52791;DHT22;41253;46.856;-71.574;2022-08-02T03:15:05;19.70;99.90
52791;DHT22;41253;46.856;-71.574;2022-08-02T03:17:42;19.70;99.90
52791;DHT22;41253;46.856;-71.574;2022-08-02T03:20:14;19.70;99.90
52791;DHT22;41253;46.856;-71.574;2022-08-02T03:22:41;19.80;99.90
52791;DHT22;41253;46.856;-71.574;2022-08-02T03:25:09;19.80;99.90
52791;DHT22;41253;46.856;-71.574;2022-08-02T03:27:37;19.70;99.90
52791;DHT22;41253;46.856;-71.574;2022-08-02T03:30:05;19.70;99.90
52791;DHT22;41253;46.856;-71.574;2022-08-02T03:32:36;19.70;99.90
52791;DHT22;41253;46.856;-71.574;2022-08-02T03:35:05;19.80;99.90
52791;DHT22;41253;46.856;-71.574;2022-08-02T03:37:34;19.60;99.90
52791;DHT22;41253;46.856;-71.574;2022-08-02T03:40:01;19.70;99.90
52791;DHT22;41253;46.856;-71.574;2022-08-02T03:42:29;19.80;99.90
52791;DHT22;41253;46.856;-71.574;2022-08-02T03:44:58;19.80;99.90
52791;DHT22;41253;46.856;-71.574;2022-08-02T03:47:27;19.90;99.90
52791;DHT22;41253;46.856;-71.574;2022-08-02T03:49:54;19.90;99.90
52791;DHT22;41253;46.856;-71.574;2022-08-02T03:52:22;19.90;99.90
52791;DHT22;41253;46.856;-71.574;2022-08-02T03:54:49;20.00;99.90
52791;DHT22;41253;46.856;-71.574;2022-08-02T03:57:16;20.10;99.90
52791;DHT22;41253;46.856;-71.574;2022-08-02T03:59:44;20.00;99.90
52791;DHT22;41253;46.856;-71.574;2022-08-02T04:02:12;20.00;99.90
52791;DHT22;41253;46.856;-71.574;2022-08-02T04:04:39;20.00;99.90
52791;DHT22;41253;46.856;-71.574;2022-08-02T04:07:06;20.00;99.90
52791;DHT22;41253;46.856;-71.574;2022-08-02T04:09:32;20.00;99.90
52791;DHT22;41253;46.856;-71.574;2022-08-02T04:11:58;20.10;99.90
52791;DHT22;41253;46.856;-71.574;2022-08-02T04:14:25;20.00;99.90
52791;DHT22;41253;46.856;-71.574;2022-08-02T04:17:01;20.10;99.90
52791;DHT22;41253;46.856;-71.574;2022-08-02T04:19:36;20.00;99.90
52791;DHT22;41253;46.856;-71.574;2022-08-02T04:22:06;20.00;99.90
52791;DHT22;41253;46.856;-71.574;2022-08-02T04:24:38;20.00;99.90
52791;DHT22;41253;46.856;-71.574;2022-08-02T04:27:07;20.00;99.90
52791;DHT22;41253;46.856;-71.574;2022-08-02T04:29:35;20.00;99.90
52791;DHT22;41253;46.856;-71.574;2022-08-02T04:32:04;20.00;99.90
52791;DHT22;41253;46.856;-71.574;2022-08-02T04:34:31;20.00;99.90
52791;DHT22;41253;46.856;-71.574;2022-08-02T04:36:58;20.00;99.90
52791;DHT22;41253;46.856;-71.574;2022-08-02T04:39:26;19.90;99.90
52791;DHT22;41253;46.856;-71.574;2022-08-02T04:41:52;19.90;99.90
52791;DHT22;41253;46.856;-71.574;2022-08-02T04:44:19;19.90;99.90
52791;DHT22;41253;46.856;-71.574;2022-08-02T04:46:45;19.90;99.90
52791;DHT22;41253;46.856;-71.574;2022-08-02T04:49:12;19.90;99.90
52791;DHT22;41253;46.856;-71.574;2022-08-02T04:51:40;19.90;99.90
52791;DHT22;41253;46.856;-71.574;2022-08-02T04:54:09;19.90;99.90
52791;DHT22;41253;46.856;-71.574;2022-08-02T04:56:36;19.90;99.90
52791;DHT22;41253;46.856;-71.574;2022-08-02T04:59:03;20.00;99.90
52791;DHT22;41253;46.856;-71.574;2022-08-02T05:01:30;20.10;99.90
52791;DHT22;41253;46.856;-71.574;2022-08-02T05:03:57;20.10;99.90
52791;DHT22;41253;46.856;-71.574;2022-08-02T05:06:23;20.10;99.90
52791;DHT22;41253;46.856;-71.574;2022-08-02T05:08:50;20.10;99.90
52791;DHT22;41253;46.856;-71.574;2022-08-02T05:11:16;20.10;99.90
52791;DHT22;41253;46.856;-71.574;2022-08-02T05:13:43;20.10;99.90
52791;DHT22;41253;46.856;-71.574;2022-08-02T05:16:09;20.10;99.90
52791;DHT22;41253;46.856;-71.574;2022-08-02T05:18:36;20.10;99.90
52791;DHT22;41253;46.856;-71.574;2022-08-02T05:21:02;20.00;99.90
52791;DHT22;41253;46.856;-71.574;2022-08-02T05:23:29;20.00;99.90
52791;DHT22;41253;46.856;-71.574;2022-08-02T05:25:55;19.90;99.90
52791;DHT22;41253;46.856;-71.574;2022-08-02T05:28:22;19.80;99.90
52791;DHT22;41253;46.856;-71.574;2022-08-02T05:30:49;19.80;99.90
52791;DHT22;41253;46.856;-71.574;2022-08-02T05:33:15;19.80;99.90
52791;DHT22;41253;46.856;-71.574;2022-08-02T05:35:41;19.80;99.90
52791;DHT22;41253;46.856;-71.574;2022-08-02T05:38:08;19.70;99.90
52791;DHT22;41253;46.856;-71.574;2022-08-02T05:40:35;19.70;99.90
52791;DHT22;41253;46.856;-71.574;2022-08-02T05:43:01;19.60;99.90
52791;DHT22;41253;46.856;-71.574;2022-08-02T05:45:33;19.60;99.90
52791;DHT22;41253;46.856;-71.574;2022-08-02T05:47:59;19.50;99.90
52791;DHT22;41253;46.856;-71.574;2022-08-02T05:50:26;19.30;99.90
52791;DHT22;41253;46.856;-71.574;2022-08-02T05:53:03;19.20;99.90
52791;DHT22;41253;46.856;-71.574;2022-08-02T05:55:41;19.20;99.90
52791;DHT22;41253;46.856;-71.574;2022-08-02T05:58:39;19.20;99.90
52791;DHT22;41253;46.856;-71.574;2022-08-02T06:01:09;19.20;99.90
52791;DHT22;41253;46.856;-71.574;2022-08-02T06:03:49;19.20;99.90
52791;DHT22;41253;46.856;-71.574;2022-08-02T06:06:19;19.10;99.90
52791;DHT22;41253;46.856;-71.574;2022-08-02T06:08:53;19.10;99.90
52791;DHT22;41253;46.856;-71.574;2022-08-02T06:11:21;19.00;99.90
52791;DHT22;41253;46.856;-71.574;2022-08-02T06:13:49;18.90;99.90
52791;DHT22;41253;46.856;-71.574;2022-08-02T06:16:16;18.90;99.90
52791;DHT22;41253;46.856;-71.574;2022-08-02T06:18:44;18.80;99.90
52791;DHT22;41253;46.856;-71.574;2022-08-02T06:21:13;18.70;99.90
52791;DHT22;41253;46.856;-71.574;2022-08-02T06:23:42;18.60;99.90
52791;DHT22;41253;46.856;-71.574;2022-08-02T06:26:11;18.60;99.90
52791;DHT22;41253;46.856;-71.574;2022-08-02T06:28:39;18.60;99.90
52791;DHT22;41253;46.856;-71.574;2022-08-02T06:31:06;18.60;99.90
52791;DHT22;41253;46.856;-71.574;2022-08-02T06:33:32;18.50;99.90
52791;DHT22;41253;46.856;-71.574;2022-08-02T06:36:03;18.40;99.90
52791;DHT22;41253;46.856;-71.574;2022-08-02T06:38:40;18.30;99.90
52791;DHT22;41253;46.856;-71.574;2022-08-02T06:41:09;18.30;99.90
52791;DHT22;41253;46.856;-71.574;2022-08-02T06:43:58;18.30;99.90
52791;DHT22;41253;46.856;-71.574;2022-08-02T06:46:26;18.30;99.90
52791;DHT22;41253;46.856;-71.574;2022-08-02T06:48:53;18.30;99.90
52791;DHT22;41253;46.856;-71.574;2022-08-02T06:51:19;18.20;99.90
52791;DHT22;41253;46.856;-71.574;2022-08-02T06:53:46;18.20;99.90
52791;DHT22;41253;46.856;-71.574;2022-08-02T06:56:12;18.10;99.90
52791;DHT22;41253;46.856;-71.574;2022-08-02T06:58:39;18.10;99.90
52791;DHT22;41253;46.856;-71.574;2022-08-02T07:01:06;18.20;99.90
52791;DHT22;41253;46.856;-71.574;2022-08-02T07:03:36;18.20;99.90
52791;DHT22;41253;46.856;-71.574;2022-08-02T07:06:04;18.30;99.90
52791;DHT22;41253;46.856;-71.574;2022-08-02T07:08:32;18.30;99.90
52791;DHT22;41253;46.856;-71.574;2022-08-02T07:10:58;18.20;99.90
52791;DHT22;41253;46.856;-71.574;2022-08-02T07:13:29;18.10;99.90
52791;DHT22;41253;46.856;-71.574;2022-08-02T07:15:56;18.10;99.90
52791;DHT22;41253;46.856;-71.574;2022-08-02T07:18:23;18.10;99.90
52791;DHT22;41253;46.856;-71.574;2022-08-02T07:20:50;18.20;99.90
52791;DHT22;41253;46.856;-71.574;2022-08-02T07:23:17;18.20;99.90
52791;DHT22;41253;46.856;-71.574;2022-08-02T07:25:44;18.20;99.90
52791;DHT22;41253;46.856;-71.574;2022-08-02T07:28:11;18.30;99.90
52791;DHT22;41253;46.856;-71.574;2022-08-02T07:30:41;18.40;99.90
52791;DHT22;41253;46.856;-71.574;2022-08-02T07:33:07;18.40;99.90
52791;DHT22;41253;46.856;-71.574;2022-08-02T07:35:34;18.50;99.90
52791;DHT22;41253;46.856;-71.574;2022-08-02T07:38:01;18.50;99.90
52791;DHT22;41253;46.856;-71.574;2022-08-02T07:40:28;18.50;99.90
52791;DHT22;41253;46.856;-71.574;2022-08-02T07:42:55;18.40;99.90
52791;DHT22;41253;46.856;-71.574;2022-08-02T07:45:23;18.50;99.90
52791;DHT22;41253;46.856;-71.574;2022-08-02T07:47:50;18.50;99.90
52791;DHT22;41253;46.856;-71.574;2022-08-02T07:50:18;18.60;99.90
52791;DHT22;41253;46.856;-71.574;2022-08-02T07:52:45;18.60;99.90
52791;DHT22;41253;46.856;-71.574;2022-08-02T07:55:13;18.70;99.90
52791;DHT22;41253;46.856;-71.574;2022-08-02T07:57:40;18.70;99.90
52791;DHT22;41253;46.856;-71.574;2022-08-02T08:00:08;18.70;99.90
52791;DHT22;41253;46.856;-71.574;2022-08-02T08:02:35;18.80;99.90
52791;DHT22;41253;46.856;-71.574;2022-08-02T08:05:01;18.80;99.90
52791;DHT22;41253;46.856;-71.574;2022-08-02T08:07:28;18.80;99.90
52791;DHT22;41253;46.856;-71.574;2022-08-02T08:09:54;18.80;99.90
52791;DHT22;41253;46.856;-71.574;2022-08-02T08:12:20;18.70;99.90
52791;DHT22;41253;46.856;-71.574;2022-08-02T08:14:47;18.80;99.90
52791;DHT22;41253;46.856;-71.574;2022-08-02T08:17:13;18.80;99.90
52791;DHT22;41253;46.856;-71.574;2022-08-02T08:19:40;18.80;99.90
52791;DHT22;41253;46.856;-71.574;2022-08-02T08:22:06;18.90;99.90
52791;DHT22;41253;46.856;-71.574;2022-08-02T08:24:33;18.90;99.90
52791;DHT22;41253;46.856;-71.574;2022-08-02T08:27:00;19.00;99.90
52791;DHT22;41253;46.856;-71.574;2022-08-02T08:29:26;19.00;99.90
52791;DHT22;41253;46.856;-71.574;2022-08-02T08:31:52;19.10;99.90
52791;DHT22;41253;46.856;-71.574;2022-08-02T08:34:19;19.00;99.90
52791;DHT22;41253;46.856;-71.574;2022-08-02T08:36:45;18.90;99.90
52791;DHT22;41253;46.856;-71.574;2022-08-02T08:39:12;18.90;99.90
52791;DHT22;41253;46.856;-71.574;2022-08-02T08:41:41;18.90;99.90
52791;DHT22;41253;46.856;-71.574;2022-08-02T08:44:08;18.90;99.90
52791;DHT22;41253;46.856;-71.574;2022-08-02T08:46:36;18.90;99.90
52791;DHT22;41253;46.856;-71.574;2022-08-02T08:49:08;18.80;99.90
52791;DHT22;41253;46.856;-71.574;2022-08-02T08:51:41;18.80;99.90
52791;DHT22;41253;46.856;-71.574;2022-08-02T08:54:15;18.80;99.90
52791;DHT22;41253;46.856;-71.574;2022-08-02T08:56:42;18.90;99.90
52791;DHT22;41253;46.856;-71.574;2022-08-02T08:59:09;18.90;99.90
52791;DHT22;41253;46.856;-71.574;2022-08-02T09:01:36;18.90;99.90
52791;DHT22;41253;46.856;-71.574;2022-08-02T09:04:02;18.80;99.90
52791;DHT22;41253;46.856;-71.574;2022-08-02T09:06:29;18.80;99.90
52791;DHT22;41253;46.856;-71.574;2022-08-02T09:08:55;18.90;99.90
52791;DHT22;41253;46.856;-71.574;2022-08-02T09:11:23;18.80;99.90
52791;DHT22;41253;46.856;-71.574;2022-08-02T09:13:56;18.80;99.90
52791;DHT22;41253;46.856;-71.574;2022-08-02T09:16:32;18.90;99.90
52791;DHT22;41253;46.856;-71.574;2022-08-02T09:19:15;18.90;99.90
52791;DHT22;41253;46.856;-71.574;2022-08-02T09:21:42;18.90;99.90
52791;DHT22;41253;46.856;-71.574;2022-08-02T09:26:43;18.90;99.90
52791;DHT22;41253;46.856;-71.574;2022-08-02T09:29:09;18.80;99.90
52791;DHT22;41253;46.856;-71.574;2022-08-02T09:31:36;18.90;99.90
52791;DHT22;41253;46.856;-71.574;2022-08-02T09:34:03;18.90;99.90
52791;DHT22;41253;46.856;-71.574;2022-08-02T09:36:50;18.90;99.90
52791;DHT22;41253;46.856;-71.574;2022-08-02T09:39:16;18.90;99.90
52791;DHT22;41253;46.856;-71.574;2022-08-02T09:41:43;18.90;99.90
52791;DHT22;41253;46.856;-71.574;2022-08-02T09:44:12;18.90;99.90
52791;DHT22;41253;46.856;-71.574;2022-08-02T09:46:41;18.90;99.90
52791;DHT22;41253;46.856;-71.574;2022-08-02T09:49:16;19.00;99.90
52791;DHT22;41253;46.856;-71.574;2022-08-02T09:54:17;19.10;99.90
52791;DHT22;41253;46.856;-71.574;2022-08-02T09:56:48;19.00;99.90
52791;DHT22;41253;46.856;-71.574;2022-08-02T09:59:15;19.10;99.90
52791;DHT22;41253;46.856;-71.574;2022-08-02T10:01:44;19.10;99.90
52791;DHT22;41253;46.856;-71.574;2022-08-02T10:04:13;19.10;99.90
52791;DHT22;41253;46.856;-71.574;2022-08-02T10:06:41;19.20;99.90
52791;DHT22;41253;46.856;-71.574;2022-08-02T10:09:10;19.20;99.90
52791;DHT22;41253;46.856;-71.574;2022-08-02T10:11:38;19.20;99.90
52791;DHT22;41253;46.856;-71.574;2022-08-02T10:14:07;19.20;99.90
52791;DHT22;41253;46.856;-71.574;2022-08-02T10:16:36;19.30;99.90
52791;DHT22;41253;46.856;-71.574;2022-08-02T10:19:03;19.30;99.90
52791;DHT22;41253;46.856;-71.574;2022-08-02T10:21:38;19.30;99.90
52791;DHT22;41253;46.856;-71.574;2022-08-02T10:24:11;19.40;99.90
52791;DHT22;41253;46.856;-71.574;2022-08-02T10:26:39;19.40;99.90
52791;DHT22;41253;46.856;-71.574;2022-08-02T10:29:13;19.50;99.90
52791;DHT22;41253;46.856;-71.574;2022-08-02T10:31:48;19.50;99.90
52791;DHT22;41253;46.856;-71.574;2022-08-02T10:34:20;19.50;99.90
52791;DHT22;41253;46.856;-71.574;2022-08-02T10:36:49;19.60;99.90
52791;DHT22;41253;46.856;-71.574;2022-08-02T10:39:16;19.50;99.90
52791;DHT22;41253;46.856;-71.574;2022-08-02T10:41:47;19.50;99.90
52791;DHT22;41253;46.856;-71.574;2022-08-02T10:44:29;19.50;99.90
52791;DHT22;41253;46.856;-71.574;2022-08-02T10:47:19;19.60;99.90
52791;DHT22;41253;46.856;-71.574;2022-08-02T10:49:56;19.70;99.90
52791;DHT22;41253;46.856;-71.574;2022-08-02T10:52:30;19.70;99.90
52791;DHT22;41253;46.856;-71.574;2022-08-02T10:54:58;19.70;99.90
52791;DHT22;41253;46.856;-71.574;2022-08-02T11:00:00;19.70;99.90
52791;DHT22;41253;46.856;-71.574;2022-08-02T11:02:46;19.70;99.90
52791;DHT22;41253;46.856;-71.574;2022-08-02T11:05:15;19.80;99.90
52791;DHT22;41253;46.856;-71.574;2022-08-02T11:07:45;19.80;99.90
52791;DHT22;41253;46.856;-71.574;2022-08-02T11:13:13;19.80;99.90
52791;DHT22;41253;46.856;-71.574;2022-08-02T11:16:05;19.90;99.90
52791;DHT22;41253;46.856;-71.574;2022-08-02T11:21:27;20.00;99.90
52791;DHT22;41253;46.856;-71.574;2022-08-02T11:23:55;20.00;99.90
52791;DHT22;41253;46.856;-71.574;2022-08-02T11:28:58;20.20;99.90
52791;DHT22;41253;46.856;-71.574;2022-08-02T11:31:25;20.20;99.90
52791;DHT22;41253;46.856;-71.574;2022-08-02T11:33:52;20.30;99.90
52791;DHT22;41253;46.856;-71.574;2022-08-02T11:36:19;20.20;99.90
52791;DHT22;41253;46.856;-71.574;2022-08-02T11:38:46;20.20;99.90
52791;DHT22;41253;46.856;-71.574;2022-08-02T11:41:22;20.20;99.90
52791;DHT22;41253;46.856;-71.574;2022-08-02T11:43:55;20.20;99.90
52791;DHT22;41253;46.856;-71.574;2022-08-02T11:46:22;20.20;99.90
52791;DHT22;41253;46.856;-71.574;2022-08-02T11:48:48;20.30;99.90
52791;DHT22;41253;46.856;-71.574;2022-08-02T11:51:16;20.30;99.90
52791;DHT22;41253;46.856;-71.574;2022-08-02T11:56:10;20.30;99.90
52791;DHT22;41253;46.856;-71.574;2022-08-02T11:58:37;20.40;99.90
52791;DHT22;41253;46.856;-71.574;2022-08-02T12:01:05;20.40;99.90
52791;DHT22;41253;46.856;-71.574;2022-08-02T12:03:36;20.50;99.90
52791;DHT22;41253;46.856;-71.574;2022-08-02T12:06:03;20.60;99.90
52791;DHT22;41253;46.856;-71.574;2022-08-02T12:08:35;20.70;99.90
52791;DHT22;41253;46.856;-71.574;2022-08-02T12:11:02;20.90;99.90
52791;DHT22;41253;46.856;-71.574;2022-08-02T12:13:41;21.00;99.90
52791;DHT22;41253;46.856;-71.574;2022-08-02T12:16:12;21.30;99.90
52791;DHT22;41253;46.856;-71.574;2022-08-02T12:18:58;21.50;99.90
52791;DHT22;41253;46.856;-71.574;2022-08-02T12:21:43;21.70;99.90
52791;DHT22;41253;46.856;-71.574;2022-08-02T12:24:10;21.70;99.90
52791;DHT22;41253;46.856;-71.574;2022-08-02T12:26:46;21.70;99.90
52791;DHT22;41253;46.856;-71.574;2022-08-02T12:29:13;21.70;99.90
52791;DHT22;41253;46.856;-71.574;2022-08-02T12:31:41;21.70;99.90
52791;DHT22;41253;46.856;-71.574;2022-08-02T12:34:13;21.50;99.90
52791;DHT22;41253;46.856;-71.574;2022-08-02T12:36:42;21.50;99.90
52791;DHT22;41253;46.856;-71.574;2022-08-02T12:39:13;21.70;99.90
52791;DHT22;41253;46.856;-71.574;2022-08-02T12:41:39;21.80;99.90
52791;DHT22;41253;46.856;-71.574;2022-08-02T12:44:15;21.90;99.90
52791;DHT22;41253;46.856;-71.574;2022-08-02T12:46:42;22.00;99.90
52791;DHT22;41253;46.856;-71.574;2022-08-02T12:49:18;22.10;99.90
52791;DHT22;41253;46.856;-71.574;2022-08-02T12:51:44;22.20;99.90
52791;DHT22;41253;46.856;-71.574;2022-08-02T12:54:19;22.30;99.90
52791;DHT22;41253;46.856;-71.574;2022-08-02T12:56:48;22.30;99.90
52791;DHT22;41253;46.856;-71.574;2022-08-02T12:59:16;22.40;99.90
52791;DHT22;41253;46.856;-71.574;2022-08-02T13:01:42;22.10;99.90
52791;DHT22;41253;46.856;-71.574;2022-08-02T13:04:10;22.20;99.90
52791;DHT22;41253;46.856;-71.574;2022-08-02T13:06:36;22.30;99.90
52791;DHT22;41253;46.856;-71.574;2022-08-02T13:09:14;22.60;99.90
52791;DHT22;41253;46.856;-71.574;2022-08-02T13:11:42;22.60;99.90
52791;DHT22;41253;46.856;-71.574;2022-08-02T13:14:08;22.50;99.90
52791;DHT22;41253;46.856;-71.574;2022-08-02T13:16:35;22.40;99.90
52791;DHT22;41253;46.856;-71.574;2022-08-02T13:19:01;22.30;99.90
52791;DHT22;41253;46.856;-71.574;2022-08-02T13:21:28;22.30;99.90
52791;DHT22;41253;46.856;-71.574;2022-08-02T13:23:54;22.30;99.90
52791;DHT22;41253;46.856;-71.574;2022-08-02T13:26:20;22.30;99.90
52791;DHT22;41253;46.856;-71.574;2022-08-02T13:28:47;22.60;99.90
52791;DHT22;41253;46.856;-71.574;2022-08-02T13:31:13;22.60;99.90
52791;DHT22;41253;46.856;-71.574;2022-08-02T13:33:40;22.60;99.90
52791;DHT22;41253;46.856;-71.574;2022-08-02T13:36:06;22.60;99.90
52791;DHT22;41253;46.856;-71.574;2022-08-02T13:38:33;22.50;99.90
52791;DHT22;41253;46.856;-71.574;2022-08-02T13:40:59;22.40;99.90
52791;DHT22;41253;46.856;-71.574;2022-08-02T13:43:38;22.30;99.90
52791;DHT22;41253;46.856;-71.574;2022-08-02T13:46:05;22.30;99.90
52791;DHT22;41253;46.856;-71.574;2022-08-02T13:48:32;22.30;99.90
52791;DHT22;41253;46.856;-71.574;2022-08-02T13:50:58;22.40;99.90
52791;DHT22;41253;46.856;-71.574;2022-08-02T13:53:25;22.40;99.90
52791;DHT22;41253;46.856;-71.574;2022-08-02T13:55:51;22.40;99.90
52791;DHT22;41253;46.856;-71.574;2022-08-02T13:58:18;22.40;99.90
52791;DHT22;41253;46.856;-71.574;2022-08-02T14:00:44;22.40;99.90
52791;DHT22;41253;46.856;-71.574;2022-08-02T14:03:11;22.40;99.90
52791;DHT22;41253;46.856;-71.574;2022-08-02T14:05:39;22.50;99.90
52791;DHT22;41253;46.856;-71.574;2022-08-02T14:08:06;22.40;99.90
52791;DHT22;41253;46.856;-71.574;2022-08-02T14:10:34;22.40;99.90
52791;DHT22;41253;46.856;-71.574;2022-08-02T14:13:00;22.40;99.90
52791;DHT22;41253;46.856;-71.574;2022-08-02T14:15:26;22.50;99.90
52791;DHT22;41253;46.856;-71.574;2022-08-02T14:17:53;23.00;99.90
52791;DHT22;41253;46.856;-71.574;2022-08-02T14:20:19;23.20;99.90
52791;DHT22;41253;46.856;-71.574;2022-08-02T14:22:46;23.60;99.90
52791;DHT22;41253;46.856;-71.574;2022-08-02T14:25:12;24.00;99.90
52791;DHT22;41253;46.856;-71.574;2022-08-02T14:27:39;24.10;99.90
52791;DHT22;41253;46.856;-71.574;2022-08-02T14:30:06;24.20;99.90
52791;DHT22;41253;46.856;-71.574;2022-08-02T14:32:32;24.20;99.90
52791;DHT22;41253;46.856;-71.574;2022-08-02T14:34:59;24.50;99.90
52791;DHT22;41253;46.856;-71.574;2022-08-02T14:37:25;24.40;99.90
52791;DHT22;41253;46.856;-71.574;2022-08-02T14:39:52;24.60;99.90
52791;DHT22;41253;46.856;-71.574;2022-08-02T14:42:18;24.70;99.90
52791;DHT22;41253;46.856;-71.574;2022-08-02T14:44:44;24.50;99.90
52791;DHT22;41253;46.856;-71.574;2022-08-02T14:47:11;24.50;99.90
52791;DHT22;41253;46.856;-71.574;2022-08-02T14:49:37;24.40;99.90
52791;DHT22;41253;46.856;-71.574;2022-08-02T14:52:04;24.60;99.90
52791;DHT22;41253;46.856;-71.574;2022-08-02T14:54:30;24.80;99.90
52791;DHT22;41253;46.856;-71.574;2022-08-02T14:56:59;25.00;99.90
52791;DHT22;41253;46.856;-71.574;2022-08-02T14:59:26;24.90;99.90
52791;DHT22;41253;46.856;-71.574;2022-08-02T15:01:53;25.20;99.90
52791;DHT22;41253;46.856;-71.574;2022-08-02T15:04:19;25.40;99.90
52791;DHT22;41253;46.856;-71.574;2022-08-02T15:06:46;25.30;99.90
52791;DHT22;41253;46.856;-71.574;2022-08-02T15:09:12;25.30;99.90
52791;DHT22;41253;46.856;-71.574;2022-08-02T15:11:39;25.30;99.90
52791;DHT22;41253;46.856;-71.574;2022-08-02T15:14:05;25.50;99.90
52791;DHT22;41253;46.856;-71.574;2022-08-02T15:16:32;25.40;99.90
52791;DHT22;41253;46.856;-71.574;2022-08-02T15:19:04;25.40;99.90
52791;DHT22;41253;46.856;-71.574;2022-08-02T15:21:31;25.30;99.90
52791;DHT22;41253;46.856;-71.574;2022-08-02T15:23:58;25.80;99.90
52791;DHT22;41253;46.856;-71.574;2022-08-02T15:26:24;25.70;99.90
52791;DHT22;41253;46.856;-71.574;2022-08-02T15:28:51;25.50;99.90
52791;DHT22;41253;46.856;-71.574;2022-08-02T15:31:18;25.20;99.90
52791;DHT22;41253;46.856;-71.574;2022-08-02T15:33:45;25.20;99.90
52791;DHT22;41253;46.856;-71.574;2022-08-02T15:36:11;25.40;99.90
52791;DHT22;41253;46.856;-71.574;2022-08-02T15:38:38;25.20;99.90